sensor_id;sensor_type;location;lat;lon;timestamp;temperature;humidity
58469;DHT22;44257;44.804;10.220;2022-09-09T00:04:03;18.60;99.90
58469;DHT22;44257;44.804;10.220;2022-09-09T00:06:33;18.60;99.90
58469;DHT22;44257;44.804;10.220;2022-09-09T00:09:16;18.60;99.90
58469;DHT22;44257;44.804;10.220;2022-09-09T00:11:47;18.60;99.90
58469;DHT22;44257;44.804;10.220;2022-09-09T00:25:39;18.40;99.90
58469;DHT22;44257;44.804;10.220;2022-09-09T00:28:22;18.40;99.90
58469;DHT22;44257;44.804;10.220;2022-09-09T00:30:48;18.40;99.90
58469;DHT22;44257;44.804;10.220;2022-09-09T00:33:19;18.30;99.90
58469;DHT22;44257;44.804;10.220;2022-09-09T00:36:00;18.30;99.90
58469;DHT22;44257;44.804;10.220;2022-09-09T00:38:35;18.20;99.90
58469;DHT22;44257;44.804;10.220;2022-09-09T00:44:00;18.10;99.90
58469;DHT22;44257;44.804;10.220;2022-09-09T00:52:08;17.90;99.90
58469;DHT22;44257;44.804;10.220;2022-09-09T00:57:34;17.70;99.90
58469;DHT22;44257;44.804;10.220;2022-09-09T01:00:21;17.70;99.90
58469;DHT22;44257;44.804;10.220;2022-09-09T01:06:00;17.70;99.90
58469;DHT22;44257;44.804;10.220;2022-09-09T01:28:30;18.00;99.90
58469;DHT22;44257;44.804;10.220;2022-09-09T01:31:05;17.90;99.90
58469;DHT22;44257;44.804;10.220;2022-09-09T01:33:38;17.90;99.90
58469;DHT22;44257;44.804;10.220;2022-09-09T01:36:20;17.80;99.90
58469;DHT22;44257;44.804;10.220;2022-09-09T01:38:49;17.80;99.90
58469;DHT22;44257;44.804;10.220;2022-09-09T01:41:17;17.70;99.90
58469;DHT22;44257;44.804;10.220;2022-09-09T01:43:49;17.60;99.90
58469;DHT22;44257;44.804;10.220;2022-09-09T01:46:16;17.50;99.90
58469;DHT22;44257;44.804;10.220;2022-09-09T01:48:43;17.50;99.90
58469;DHT22;44257;44.804;10.220;2022-09-09T01:51:10;17.50;99.90
58469;DHT22;44257;44.804;10.220;2022-09-09T01:53:36;17.40;99.90
58469;DHT22;44257;44.804;10.220;2022-09-09T02:02:10;17.20;99.90
58469;DHT22;44257;44.804;10.220;2022-09-09T02:04:49;17.10;99.90
58469;DHT22;44257;44.804;10.220;2022-09-09T02:07:31;17.00;99.90
58469;DHT22;44257;44.804;10.220;2022-09-09T02:12:33;16.90;99.90
58469;DHT22;44257;44.804;10.220;2022-09-09T02:15:11;16.80;99.90
58469;DHT22;44257;44.804;10.220;2022-09-09T02:17:48;16.70;99.90
58469;DHT22;44257;44.804;10.220;2022-09-09T02:20:18;16.70;99.90
58469;DHT22;44257;44.804;10.220;2022-09-09T02:22:51;16.80;99.90
58469;DHT22;44257;44.804;10.220;2022-09-09T02:25:22;16.70;99.90
58469;DHT22;44257;44.804;10.220;2022-09-09T02:27:50;16.60;99.90
58469;DHT22;44257;44.804;10.220;2022-09-09T02:30:20;16.70;99.90
58469;DHT22;44257;44.804;10.220;2022-09-09T02:32:52;16.60;99.90
58469;DHT22;44257;44.804;10.220;2022-09-09T02:35:26;16.50;99.90
58469;DHT22;44257;44.804;10.220;2022-09-09T02:37:55;16.50;99.90
58469;DHT22;44257;44.804;10.220;2022-09-09T02:40:23;16.40;99.90
58469;DHT22;44257;44.804;10.220;2022-09-09T02:42:56;16.50;99.90
58469;DHT22;44257;44.804;10.220;2022-09-09T02:45:31;16.40;99.90
58469;DHT22;44257;44.804;10.220;2022-09-09T02:48:26;16.40;99.90
58469;DHT22;44257;44.804;10.220;2022-09-09T02:54:20;16.40;99.90
58469;DHT22;44257;44.804;10.220;2022-09-09T02:56:52;16.30;99.90
58469;DHT22;44257;44.804;10.220;2022-09-09T02:59:25;16.30;99.90
58469;DHT22;44257;44.804;10.220;2022-09-09T03:01:52;16.30;99.90
58469;DHT22;44257;44.804;10.220;2022-09-09T03:04:19;16.30;99.90
58469;DHT22;44257;44.804;10.220;2022-09-09T03:06:46;16.20;99.90
58469;DHT22;44257;44.804;10.220;2022-09-09T03:09:18;16.10;99.90
58469;DHT22;44257;44.804;10.220;2022-09-09T03:11:44;16.10;99.90
58469;DHT22;44257;44.804;10.220;2022-09-09T03:14:11;16.10;99.90
58469;DHT22;44257;44.804;10.220;2022-09-09T03:16:37;16.10;99.90
58469;DHT22;44257;44.804;10.220;2022-09-09T03:19:03;16.10;99.90
58469;DHT22;44257;44.804;10.220;2022-09-09T03:21:30;16.10;99.90
58469;DHT22;44257;44.804;10.220;2022-09-09T03:23:56;15.90;99.90
58469;DHT22;44257;44.804;10.220;2022-09-09T03:26:22;15.80;99.90
58469;DHT22;44257;44.804;10.220;2022-09-09T03:28:48;15.80;99.90
58469;DHT22;44257;44.804;10.220;2022-09-09T03:31:18;15.80;99.90
58469;DHT22;44257;44.804;10.220;2022-09-09T03:33:45;15.70;99.90
58469;DHT22;44257;44.804;10.220;2022-09-09T03:36:13;15.70;99.90
58469;DHT22;44257;44.804;10.220;2022-09-09T03:38:39;15.70;99.90
58469;DHT22;44257;44.804;10.220;2022-09-09T03:41:06;15.70;99.90
58469;DHT22;44257;44.804;10.220;2022-09-09T03:43:33;15.80;99.90
58469;DHT22;44257;44.804;10.220;2022-09-09T03:46:00;15.80;99.90
58469;DHT22;44257;44.804;10.220;2022-09-09T03:48:27;15.80;99.90
58469;DHT22;44257;44.804;10.220;2022-09-09T03:50:54;15.80;99.90
58469;DHT22;44257;44.804;10.220;2022-09-09T03:53:26;15.70;99.90
58469;DHT22;44257;44.804;10.220;2022-09-09T03:55:54;15.70;99.90
58469;DHT22;44257;44.804;10.220;2022-09-09T03:58:22;15.70;99.90
58469;DHT22;44257;44.804;10.220;2022-09-09T04:03:21;15.60;99.90
58469;DHT22;44257;44.804;10.220;2022-09-09T04:05:55;15.60;99.90
58469;DHT22;44257;44.804;10.220;2022-09-09T04:08:23;15.50;99.90
58469;DHT22;44257;44.804;10.220;2022-09-09T04:10:52;15.40;99.90
58469;DHT22;44257;44.804;10.220;2022-09-09T04:13:18;15.40;99.90
58469;DHT22;44257;44.804;10.220;2022-09-09T04:15:54;15.40;99.90
58469;DHT22;44257;44.804;10.220;2022-09-09T04:18:22;15.40;99.90
58469;DHT22;44257;44.804;10.220;2022-09-09T04:20:50;15.30;99.90
58469;DHT22;44257;44.804;10.220;2022-09-09T04:23:19;15.30;99.90
58469;DHT22;44257;44.804;10.220;2022-09-09T04:25:51;15.30;99.90
58469;DHT22;44257;44.804;10.220;2022-09-09T04:28:19;15.30;99.90
58469;DHT22;44257;44.804;10.220;2022-09-09T04:30:46;15.30;99.90
58469;DHT22;44257;44.804;10.220;2022-09-09T04:33:13;15.30;99.90
58469;DHT22;44257;44.804;10.220;2022-09-09T04:35:39;15.30;99.90
58469;DHT22;44257;44.804;10.220;2022-09-09T04:38:10;15.30;99.90
58469;DHT22;44257;44.804;10.220;2022-09-09T04:40:36;15.30;99.90
58469;DHT22;44257;44.804;10.220;2022-09-09T04:43:03;15.30;99.90
58469;DHT22;44257;44.804;10.220;2022-09-09T04:45:31;15.30;99.90
58469;DHT22;44257;44.804;10.220;2022-09-09T04:47:58;15.30;99.90
58469;DHT22;44257;44.804;10.220;2022-09-09T04:50:24;15.30;99.90
58469;DHT22;44257;44.804;10.220;2022-09-09T04:53:00;15.40;99.90
58469;DHT22;44257;44.804;10.220;2022-09-09T04:55:28;15.40;99.90
58469;DHT22;44257;44.804;10.220;2022-09-09T04:57:54;15.40;99.90
58469;DHT22;44257;44.804;10.220;2022-09-09T05:00:20;15.40;99.90
58469;DHT22;44257;44.804;10.220;2022-09-09T05:02:47;15.40;99.90
58469;DHT22;44257;44.804;10.220;2022-09-09T05:05:13;15.40;99.90
58469;DHT22;44257;44.804;10.220;2022-09-09T05:07:40;15.40;99.90
58469;DHT22;44257;44.804;10.220;2022-09-09T05:10:08;15.30;99.90
58469;DHT22;44257;44.804;10.220;2022-09-09T05:12:33;15.30;99.90
58469;DHT22;44257;44.804;10.220;2022-09-09T05:15:00;15.30;99.90
58469;DHT22;44257;44.804;10.220;2022-09-09T05:17:27;15.40;99.90
58469;DHT22;44257;44.804;10.220;2022-09-09T05:19:53;15.40;99.90
58469;DHT22;44257;44.804;10.220;2022-09-09T05:22:19;15.50;99.90
58469;DHT22;44257;44.804;10.220;2022-09-09T05:24:47;15.60;99.90
58469;DHT22;44257;44.804;10.220;2022-09-09T05:27:18;15.60;99.90
58469;DHT22;44257;44.804;10.220;2022-09-09T05:29:46;15.80;99.90
58469;DHT22;44257;44.804;10.220;2022-09-09T05:32:12;15.80;99.90
58469;DHT22;44257;44.804;10.220;2022-09-09T05:34:40;15.90;99.90
58469;DHT22;44257;44.804;10.220;2022-09-09T05:37:06;15.90;99.90
58469;DHT22;44257;44.804;10.220;2022-09-09T05:39:34;16.10;99.90
58469;DHT22;44257;44.804;10.220;2022-09-09T05:42:03;16.20;99.90
58469;DHT22;44257;44.804;10.220;2022-09-09T05:44:31;16.20;99.90
58469;DHT22;44257;44.804;10.220;2022-09-09T05:46:58;16.40;99.90
58469;DHT22;44257;44.804;10.220;2022-09-09T05:49:25;16.50;99.90
58469;DHT22;44257;44.804;10.220;2022-09-09T05:51:51;16.60;99.90
58469;DHT22;44257;44.804;10.220;2022-09-09T05:54:19;16.80;99.90
58469;DHT22;44257;44.804;10.220;2022-09-09T05:56:48;17.20;99.90
58469;DHT22;44257;44.804;10.220;2022-09-09T05:59:16;17.60;99.90
58469;DHT22;44257;44.804;10.220;2022-09-09T06:01:43;18.00;99.90
58469;DHT22;44257;44.804;10.220;2022-09-09T06:04:18;18.50;99.90
58469;DHT22;44257;44.804;10.220;2022-09-09T06:06:50;19.00;99.90
58469;DHT22;44257;44.804;10.220;2022-09-09T06:09:18;19.50;99.90
58469;DHT22;44257;44.804;10.220;2022-09-09T06:11:44;20.00;99.90
58469;DHT22;44257;44.804;10.220;2022-09-09T06:14:12;20.40;99.90
58469;DHT22;44257;44.804;10.220;2022-09-09T06:16:39;20.70;99.90
58469;DHT22;44257;44.804;10.220;2022-09-09T06:19:14;20.80;99.90
58469;DHT22;44257;44.804;10.220;2022-09-09T06:21:40;20.90;99.90
58469;DHT22;44257;44.804;10.220;2022-09-09T06:24:08;20.90;99.90
58469;DHT22;44257;44.804;10.220;2022-09-09T06:26:38;21.00;99.90
58469;DHT22;44257;44.804;10.220;2022-09-09T06:29:09;21.00;99.90
58469;DHT22;44257;44.804;10.220;2022-09-09T06:31:36;21.00;99.90
58469;DHT22;44257;44.804;10.220;2022-09-09T06:34:09;21.00;99.90
58469;DHT22;44257;44.804;10.220;2022-09-09T06:36:39;21.00;99.90
58469;DHT22;44257;44.804;10.220;2022-09-09T06:39:06;21.00;99.90
58469;DHT22;44257;44.804;10.220;2022-09-09T06:41:33;20.90;99.90
58469;DHT22;44257;44.804;10.220;2022-09-09T06:44:01;20.80;99.90
58469;DHT22;44257;44.804;10.220;2022-09-09T06:46:33;20.80;99.90
58469;DHT22;44257;44.804;10.220;2022-09-09T06:49:02;20.80;99.90
58469;DHT22;44257;44.804;10.220;2022-09-09T06:51:30;20.80;99.90
58469;DHT22;44257;44.804;10.220;2022-09-09T06:53:59;20.80;99.90
58469;DHT22;44257;44.804;10.220;2022-09-09T06:56:31;20.90;99.90
58469;DHT22;44257;44.804;10.220;2022-09-09T06:59:00;21.00;99.90
58469;DHT22;44257;44.804;10.220;2022-09-09T07:01:33;21.10;99.90
58469;DHT22;44257;44.804;10.220;2022-09-09T07:04:03;21.30;99.90
58469;DHT22;44257;44.804;10.220;2022-09-09T07:06:37;21.40;99.90
58469;DHT22;44257;44.804;10.220;2022-09-09T07:09:07;21.50;99.90
58469;DHT22;44257;44.804;10.220;2022-09-09T07:11:40;21.60;99.90
58469;DHT22;44257;44.804;10.220;2022-09-09T07:14:08;21.70;99.90
58469;DHT22;44257;44.804;10.220;2022-09-09T07:16:34;21.90;99.90
58469;DHT22;44257;44.804;10.220;2022-09-09T07:19:04;22.10;99.90
58469;DHT22;44257;44.804;10.220;2022-09-09T07:21:31;22.20;99.90
58469;DHT22;44257;44.804;10.220;2022-09-09T07:23:57;22.30;99.90
58469;DHT22;44257;44.804;10.220;2022-09-09T07:26:26;22.50;99.90
58469;DHT22;44257;44.804;10.220;2022-09-09T07:28:54;22.70;99.90
58469;DHT22;44257;44.804;10.220;2022-09-09T07:31:25;22.90;99.90
58469;DHT22;44257;44.804;10.220;2022-09-09T07:33:52;23.00;99.90
58469;DHT22;44257;44.804;10.220;2022-09-09T07:36:24;23.20;99.90
58469;DHT22;44257;44.804;10.220;2022-09-09T07:38:55;23.30;99.90
58469;DHT22;44257;44.804;10.220;2022-09-09T07:41:25;23.40;99.90
58469;DHT22;44257;44.804;10.220;2022-09-09T07:43:52;23.50;99.90
58469;DHT22;44257;44.804;10.220;2022-09-09T07:46:22;23.60;99.90
58469;DHT22;44257;44.804;10.220;2022-09-09T07:48:53;23.50;99.90
58469;DHT22;44257;44.804;10.220;2022-09-09T07:51:35;23.60;99.90
58469;DHT22;44257;44.804;10.220;2022-09-09T07:54:08;23.70;99.90
58469;DHT22;44257;44.804;10.220;2022-09-09T07:56:37;23.80;99.90
58469;DHT22;44257;44.804;10.220;2022-09-09T07:59:03;24.00;99.90
58469;DHT22;44257;44.804;10.220;2022-09-09T08:01:36;24.30;99.90
58469;DHT22;44257;44.804;10.220;2022-09-09T08:04:07;24.40;99.90
58469;DHT22;44257;44.804;10.220;2022-09-09T08:06:38;24.40;99.90
58469;DHT22;44257;44.804;10.220;2022-09-09T08:09:05;24.50;99.90
58469;DHT22;44257;44.804;10.220;2022-09-09T08:11:32;24.60;99.90
58469;DHT22;44257;44.804;10.220;2022-09-09T08:14:00;24.80;99.90
58469;DHT22;44257;44.804;10.220;2022-09-09T08:16:29;25.00;99.90
58469;DHT22;44257;44.804;10.220;2022-09-09T08:18:57;25.10;99.90
58469;DHT22;44257;44.804;10.220;2022-09-09T08:21:27;25.20;99.90
58469;DHT22;44257;44.804;10.220;2022-09-09T08:23:56;25.20;99.90
58469;DHT22;44257;44.804;10.220;2022-09-09T08:26:28;25.20;99.90
58469;DHT22;44257;44.804;10.220;2022-09-09T08:28:56;25.30;99.90
58469;DHT22;44257;44.804;10.220;2022-09-09T08:31:26;25.40;99.90
58469;DHT22;44257;44.804;10.220;2022-09-09T08:33:55;25.50;99.90
58469;DHT22;44257;44.804;10.220;2022-09-09T08:36:24;25.60;99.90
58469;DHT22;44257;44.804;10.220;2022-09-09T08:38:53;25.70;99.90
58469;DHT22;44257;44.804;10.220;2022-09-09T08:46:44;25.60;99.90
58469;DHT22;44257;44.804;10.220;2022-09-09T08:52:19;25.80;99.90
58469;DHT22;44257;44.804;10.220;2022-09-09T08:54:47;26.00;99.90
58469;DHT22;44257;44.804;10.220;2022-09-09T08:57:25;26.10;99.90
58469;DHT22;44257;44.804;10.220;2022-09-09T08:59:54;26.00;99.90
58469;DHT22;44257;44.804;10.220;2022-09-09T09:02:27;26.00;99.90
58469;DHT22;44257;44.804;10.220;2022-09-09T09:10:56;26.60;99.90
58469;DHT22;44257;44.804;10.220;2022-09-09T09:13:47;26.70;99.90
58469;DHT22;44257;44.804;10.220;2022-09-09T09:16:32;26.80;99.90
58469;DHT22;44257;44.804;10.220;2022-09-09T09:19:02;26.90;99.90
58469;DHT22;44257;44.804;10.220;2022-09-09T09:21:40;27.00;99.90
58469;DHT22;44257;44.804;10.220;2022-09-09T09:26:43;27.20;99.90
58469;DHT22;44257;44.804;10.220;2022-09-09T09:29:15;27.10;99.90
58469;DHT22;44257;44.804;10.220;2022-09-09T09:31:56;27.10;99.90
58469;DHT22;44257;44.804;10.220;2022-09-09T09:34:25;27.00;99.90
58469;DHT22;44257;44.804;10.220;2022-09-09T09:36:56;26.90;99.90
58469;DHT22;44257;44.804;10.220;2022-09-09T09:39:32;26.90;99.90
58469;DHT22;44257;44.804;10.220;2022-09-09T09:42:16;26.70;99.90
58469;DHT22;44257;44.804;10.220;2022-09-09T09:44:46;26.50;99.90
58469;DHT22;44257;44.804;10.220;2022-09-09T09:47:19;26.30;99.90
58469;DHT22;44257;44.804;10.220;2022-09-09T09:49:55;26.40;99.90
58469;DHT22;44257;44.804;10.220;2022-09-09T09:52:28;26.60;99.90
58469;DHT22;44257;44.804;10.220;2022-09-09T09:54:56;26.70;99.90
58469;DHT22;44257;44.804;10.220;2022-09-09T09:57:28;26.80;99.90
58469;DHT22;44257;44.804;10.220;2022-09-09T10:02:42;26.70;99.90
58469;DHT22;44257;44.804;10.220;2022-09-09T10:05:24;26.90;99.90
58469;DHT22;44257;44.804;10.220;2022-09-09T10:08:01;27.10;99.90
58469;DHT22;44257;44.804;10.220;2022-09-09T10:11:02;27.00;99.90
58469;DHT22;44257;44.804;10.220;2022-09-09T10:19:16;26.80;99.90
58469;DHT22;44257;44.804;10.220;2022-09-09T10:24:44;26.60;99.90
58469;DHT22;44257;44.804;10.220;2022-09-09T10:27:36;26.50;99.90
58469;DHT22;44257;44.804;10.220;2022-09-09T10:33:22;26.40;99.90
58469;DHT22;44257;44.804;10.220;2022-09-09T10:38:41;26.20;99.90
58469;DHT22;44257;44.804;10.220;2022-09-09T10:52:28;26.60;99.90
58469;DHT22;44257;44.804;10.220;2022-09-09T10:55:48;26.60;99.90
58469;DHT22;44257;44.804;10.220;2022-09-09T10:57:50;26.50;99.90
58469;DHT22;44257;44.804;10.220;2022-09-09T11:00:21;26.40;99.90
58469;DHT22;44257;44.804;10.220;2022-09-09T11:03:02;26.30;99.90
58469;DHT22;44257;44.804;10.220;2022-09-09T11:05:39;26.30;99.90
58469;DHT22;44257;44.804;10.220;2022-09-09T11:08:18;26.40;99.90
58469;DHT22;44257;44.804;10.220;2022-09-09T11:11:03;26.40;99.90
58469;DHT22;44257;44.804;10.220;2022-09-09T11:19:42;26.90;99.90
58469;DHT22;44257;44.804;10.220;2022-09-09T11:22:38;27.00;99.90
58469;DHT22;44257;44.804;10.220;2022-09-09T11:30:22;27.10;99.90
58469;DHT22;44257;44.804;10.220;2022-09-09T11:38:46;27.00;99.90
58469;DHT22;44257;44.804;10.220;2022-09-09T11:41:14;27.30;99.90
58469;DHT22;44257;44.804;10.220;2022-09-09T11:46:07;27.80;99.90
58469;DHT22;44257;44.804;10.220;2022-09-09T11:48:39;27.70;99.90
58469;DHT22;44257;44.804;10.220;2022-09-09T11:51:10;27.40;99.90
58469;DHT22;44257;44.804;10.220;2022-09-09T11:53:58;27.30;99.90
58469;DHT22;44257;44.804;10.220;2022-09-09T11:56:46;27.20;99.90
58469;DHT22;44257;44.804;10.220;2022-09-09T11:59:26;27.30;99.90
58469;DHT22;44257;44.804;10.220;2022-09-09T12:04:38;27.60;99.90
58469;DHT22;44257;44.804;10.220;2022-09-09T12:09:56;27.70;99.90
58469;DHT22;44257;44.804;10.220;2022-09-09T12:12:37;27.90;99.90
58469;DHT22;44257;44.804;10.220;2022-09-09T12:17:44;28.20;99.90
58469;DHT22;44257;44.804;10.220;2022-09-09T12:20:35;28.30;99.90
58469;DHT22;44257;44.804;10.220;2022-09-09T12:28:52;28.50;99.50
58469;DHT22;44257;44.804;10.220;2022-09-09T12:31:38;28.40;98.80
58469;DHT22;44257;44.804;10.220;2022-09-09T12:34:27;28.30;99.20
58469;DHT22;44257;44.804;10.220;2022-09-09T12:37:00;28.30;99.70
58469;DHT22;44257;44.804;10.220;2022-09-09T12:39:36;28.30;99.90
58469;DHT22;44257;44.804;10.220;2022-09-09T12:42:04;28.50;99.20
58469;DHT22;44257;44.804;10.220;2022-09-09T12:44:30;28.30;99.10
58469;DHT22;44257;44.804;10.220;2022-09-09T12:47:01;28.30;99.00
58469;DHT22;44257;44.804;10.220;2022-09-09T12:49:34;28.40;98.60
58469;DHT22;44257;44.804;10.220;2022-09-09T12:52:04;28.40;98.70
58469;DHT22;44257;44.804;10.220;2022-09-09T12:54:33;28.50;98.70
58469;DHT22;44257;44.804;10.220;2022-09-09T12:57:00;28.60;97.70
58469;DHT22;44257;44.804;10.220;2022-09-09T12:59:38;28.50;98.30
58469;DHT22;44257;44.804;10.220;2022-09-09T13:02:22;28.40;98.40
58469;DHT22;44257;44.804;10.220;2022-09-09T13:04:49;28.30;98.50
58469;DHT22;44257;44.804;10.220;2022-09-09T13:07:17;28.30;98.70
58469;DHT22;44257;44.804;10.220;2022-09-09T13:09:44;28.40;98.30
58469;DHT22;44257;44.804;10.220;2022-09-09T13:12:17;28.70;97.90
58469;DHT22;44257;44.804;10.220;2022-09-09T13:14:47;28.70;98.30
58469;DHT22;44257;44.804;10.220;2022-09-09T13:17:25;28.90;97.90
58469;DHT22;44257;44.804;10.220;2022-09-09T13:19:53;29.20;98.70
58469;DHT22;44257;44.804;10.220;2022-09-09T13:22:36;29.40;96.80
58469;DHT22;44257;44.804;10.220;2022-09-09T13:27:40;29.60;96.30
58469;DHT22;44257;44.804;10.220;2022-09-09T13:33:17;29.50;95.90
58469;DHT22;44257;44.804;10.220;2022-09-09T13:35:59;29.60;96.30
58469;DHT22;44257;44.804;10.220;2022-09-09T13:38:28;29.60;95.00
58469;DHT22;44257;44.804;10.220;2022-09-09T13:41:06;29.50;95.70
58469;DHT22;44257;44.804;10.220;2022-09-09T13:43:38;29.40;96.10
58469;DHT22;44257;44.804;10.220;2022-09-09T13:49:23;29.30;96.20
58469;DHT22;44257;44.804;10.220;2022-09-09T13:52:04;29.30;96.00
58469;DHT22;44257;44.804;10.220;2022-09-09T13:54:30;29.40;96.10
58469;DHT22;44257;44.804;10.220;2022-09-09T13:56:56;29.40;95.50
58469;DHT22;44257;44.804;10.220;2022-09-09T13:59:22;29.50;95.50
58469;DHT22;44257;44.804;10.220;2022-09-09T14:01:49;29.70;96.30
58469;DHT22;44257;44.804;10.220;2022-09-09T14:04:18;29.90;95.40
58469;DHT22;44257;44.804;10.220;2022-09-09T14:06:46;30.00;95.50
58469;DHT22;44257;44.804;10.220;2022-09-09T14:09:14;30.00;95.40
58469;DHT22;44257;44.804;10.220;2022-09-09T14:11:41;30.00;94.90
58469;DHT22;44257;44.804;10.220;2022-09-09T14:14:07;30.20;94.70
58469;DHT22;44257;44.804;10.220;2022-09-09T14:16:33;30.20;94.00
58469;DHT22;44257;44.804;10.220;2022-09-09T14:18:59;30.00;94.00
58469;DHT22;44257;44.804;10.220;2022-09-09T14:21:27;30.00;94.20
58469;DHT22;44257;44.804;10.220;2022-09-09T14:23:52;29.90;94.30
58469;DHT22;44257;44.804;10.220;2022-09-09T14:26:22;29.80;94.00
58469;DHT22;44257;44.804;10.220;2022-09-09T14:28:49;29.70;94.20
58469;DHT22;44257;44.804;10.220;2022-09-09T14:31:16;29.70;95.00
58469;DHT22;44257;44.804;10.220;2022-09-09T14:33:43;29.80;95.40
58469;DHT22;44257;44.804;10.220;2022-09-09T14:36:10;29.80;94.50
58469;DHT22;44257;44.804;10.220;2022-09-09T14:38:37;29.90;94.60
58469;DHT22;44257;44.804;10.220;2022-09-09T14:41:10;29.80;94.40
58469;DHT22;44257;44.804;10.220;2022-09-09T14:43:40;29.60;94.60
58469;DHT22;44257;44.804;10.220;2022-09-09T14:46:10;29.50;94.80
58469;DHT22;44257;44.804;10.220;2022-09-09T14:48:37;29.40;94.50
58469;DHT22;44257;44.804;10.220;2022-09-09T14:51:10;29.50;95.10
58469;DHT22;44257;44.804;10.220;2022-09-09T14:53:39;29.70;94.90
58469;DHT22;44257;44.804;10.220;2022-09-09T14:56:09;29.80;95.70
58469;DHT22;44257;44.804;10.220;2022-09-09T14:58:36;29.90;93.80
58469;DHT22;44257;44.804;10.220;2022-09-09T15:01:08;29.90;94.00
58469;DHT22;44257;44.804;10.220;2022-09-09T15:03:37;30.00;93.90
58469;DHT22;44257;44.804;10.220;2022-09-09T15:06:11;30.10;93.90
58469;DHT22;44257;44.804;10.220;2022-09-09T15:08:39;30.10;93.50
58469;DHT22;44257;44.804;10.220;2022-09-09T15:11:06;30.00;94.10
58469;DHT22;44257;44.804;10.220;2022-09-09T15:13:36;30.00;93.60
58469;DHT22;44257;44.804;10.220;2022-09-09T15:18:32;30.10;94.20
58469;DHT22;44257;44.804;10.220;2022-09-09T15:21:03;30.20;93.00
58469;DHT22;44257;44.804;10.220;2022-09-09T15:23:34;30.00;93.20
58469;DHT22;44257;44.804;10.220;2022-09-09T15:26:00;29.90;93.20
58469;DHT22;44257;44.804;10.220;2022-09-09T15:28:26;29.80;92.90
58469;DHT22;44257;44.804;10.220;2022-09-09T15:30:53;29.60;93.40
58469;DHT22;44257;44.804;10.220;2022-09-09T15:33:20;29.60;94.10
58469;DHT22;44257;44.804;10.220;2022-09-09T15:35:47;29.60;93.60
58469;DHT22;44257;44.804;10.220;2022-09-09T15:38:13;29.50;93.60
58469;DHT22;44257;44.804;10.220;2022-09-09T15:40:39;29.50;93.50
58469;DHT22;44257;44.804;10.220;2022-09-09T15:43:06;29.40;94.30
58469;DHT22;44257;44.804;10.220;2022-09-09T15:45:33;29.50;94.90
58469;DHT22;44257;44.804;10.220;2022-09-09T15:48:00;29.60;94.20
58469;DHT22;44257;44.804;10.220;2022-09-09T15:50:26;29.60;94.20
58469;DHT22;44257;44.804;10.220;2022-09-09T15:52:52;29.60;94.20
58469;DHT22;44257;44.804;10.220;2022-09-09T15:55:19;29.70;93.80
58469;DHT22;44257;44.804;10.220;2022-09-09T15:57:49;29.70;93.80
58469;DHT22;44257;44.804;10.220;2022-09-09T16:00:16;29.60;94.00
58469;DHT22;44257;44.804;10.220;2022-09-09T16:02:42;29.50;93.60
58469;DHT22;44257;44.804;10.220;2022-09-09T16:05:08;29.50;93.90
58469;DHT22;44257;44.804;10.220;2022-09-09T16:07:34;29.40;94.00
58469;DHT22;44257;44.804;10.220;2022-09-09T16:10:01;29.40;94.50
58469;DHT22;44257;44.804;10.220;2022-09-09T16:12:27;29.40;94.50
58469;DHT22;44257;44.804;10.220;2022-09-09T16:14:53;29.30;94.40
58469;DHT22;44257;44.804;10.220;2022-09-09T16:17:19;29.30;94.70
58469;DHT22;44257;44.804;10.220;2022-09-09T16:19:46;29.20;94.90
58469;DHT22;44257;44.804;10.220;2022-09-09T16:22:12;29.10;95.10
58469;DHT22;44257;44.804;10.220;2022-09-09T16:24:40;29.10;95.10
58469;DHT22;44257;44.804;10.220;2022-09-09T16:27:06;29.00;95.40
58469;DHT22;44257;44.804;10.220;2022-09-09T16:29:32;28.90;95.30
58469;DHT22;44257;44.804;10.220;2022-09-09T16:31:58;28.80;95.40
58469;DHT22;44257;44.804;10.220;2022-09-09T16:34:26;28.70;95.40
58469;DHT22;44257;44.804;10.220;2022-09-09T16:36:52;28.60;95.80
58469;DHT22;44257;44.804;10.220;2022-09-09T16:39:19;28.50;96.60
58469;DHT22;44257;44.804;10.220;2022-09-09T16:41:47;28.40;96.40
58469;DHT22;44257;44.804;10.220;2022-09-09T16:44:16;28.30;96.40
58469;DHT22;44257;44.804;10.220;2022-09-09T16:46:44;28.20;97.00
58469;DHT22;44257;44.804;10.220;2022-09-09T16:49:12;28.10;97.30
58469;DHT22;44257;44.804;10.220;2022-09-09T16:51:59;27.90;97.60
58469;DHT22;44257;44.804;10.220;2022-09-09T16:54:25;27.80;98.00
58469;DHT22;44257;44.804;10.220;2022-09-09T16:56:52;27.70;98.30
58469;DHT22;44257;44.804;10.220;2022-09-09T16:59:20;27.60;98.60
58469;DHT22;44257;44.804;10.220;2022-09-09T17:01:49;27.50;98.90
58469;DHT22;44257;44.804;10.220;2022-09-09T17:04:18;27.40;99.00
58469;DHT22;44257;44.804;10.220;2022-09-09T17:06:47;27.30;99.10
58469;DHT22;44257;44.804;10.220;2022-09-09T17:09:15;27.20;99.30
58469;DHT22;44257;44.804;10.220;2022-09-09T17:11:41;27.10;99.70
58469;DHT22;44257;44.804;10.220;2022-09-09T17:14:10;27.00;99.80
58469;DHT22;44257;44.804;10.220;2022-09-09T17:16:37;26.80;99.90
58469;DHT22;44257;44.804;10.220;2022-09-09T17:19:05;26.70;99.90
58469;DHT22;44257;44.804;10.220;2022-09-09T17:21:32;26.60;99.90
58469;DHT22;44257;44.804;10.220;2022-09-09T17:23:58;26.50;99.90
58469;DHT22;44257;44.804;10.220;2022-09-09T17:26:27;26.40;99.90
58469;DHT22;44257;44.804;10.220;2022-09-09T17:28:55;26.30;99.90
58469;DHT22;44257;44.804;10.220;2022-09-09T17:31:24;26.10;99.90
58469;DHT22;44257;44.804;10.220;2022-09-09T17:33:51;26.00;99.90
58469;DHT22;44257;44.804;10.220;2022-09-09T17:36:20;25.90;99.90
58469;DHT22;44257;44.804;10.220;2022-09-09T17:38:50;25.80;99.90
58469;DHT22;44257;44.804;10.220;2022-09-09T17:43:42;25.60;99.90
58469;DHT22;44257;44.804;10.220;2022-09-09T17:46:17;25.50;99.90
58469;DHT22;44257;44.804;10.220;2022-09-09T17:48:48;25.40;99.90
58469;DHT22;44257;44.804;10.220;2022-09-09T17:51:17;25.20;99.90
58469;DHT22;44257;44.804;10.220;2022-09-09T17:53:47;25.10;99.90
58469;DHT22;44257;44.804;10.220;2022-09-09T17:56:15;25.00;99.90
58469;DHT22;44257;44.804;10.220;2022-09-09T17:58:41;24.90;99.90
58469;DHT22;44257;44.804;10.220;2022-09-09T18:01:19;24.80;99.90
58469;DHT22;44257;44.804;10.220;2022-09-09T18:03:46;24.60;99.90
58469;DHT22;44257;44.804;10.220;2022-09-09T18:06:20;24.50;99.90
58469;DHT22;44257;44.804;10.220;2022-09-09T18:08:51;24.40;99.90
58469;DHT22;44257;44.804;10.220;2022-09-09T18:11:20;24.20;99.90